createdAt,value
2018-12-25T00:01:45.744Z,6.06
2018-12-25T00:04:19.175Z,5.80
2018-12-25T00:06:51.365Z,5.34
2018-12-25T00:09:21.999Z,5.26
2018-12-25T00:11:52.907Z,5.37
2018-12-25T00:14:23.126Z,5.37
2018-12-25T00:16:56.858Z,5.12
2018-12-25T00:19:27.632Z,5.08
2018-12-25T00:21:56.785Z,4.66
2018-12-25T00:24:25.895Z,4.66
2018-12-25T00:26:54.991Z,4.91
2018-12-25T00:29:24.073Z,4.41
2018-12-25T00:31:53.255Z,4.56
2018-12-25T00:34:22.332Z,4.72
2018-12-25T00:36:54.901Z,4.89
2018-12-25T00:39:33.498Z,4.20
2018-12-25T00:42:03.803Z,4.53
2018-12-25T00:44:34.642Z,4.07
2018-12-25T00:47:06.820Z,4.21
2018-12-25T00:49:37.021Z,4.01
2018-12-25T00:52:11.172Z,4.29
2018-12-25T00:54:40.618Z,4.09
2018-12-25T00:57:11.065Z,3.61
2018-12-25T00:59:40.186Z,4.11
2018-12-25T01:02:11.841Z,4.03
2018-12-25T01:04:42.748Z,4.20
2018-12-25T01:07:12.108Z,4.92
2018-12-25T01:09:41.212Z,5.59
2018-12-25T01:12:13.827Z,5.83
2018-12-25T01:14:45.981Z,6.00
2018-12-25T01:17:15.124Z,6.16
2018-12-25T01:19:44.255Z,6.14
2018-12-25T01:22:15.522Z,5.64
2018-12-25T01:24:49.211Z,5.42
2018-12-25T01:27:18.410Z,5.35
2018-12-25T01:29:47.520Z,5.31
2018-12-25T01:32:18.104Z,5.18
2018-12-25T01:34:49.657Z,5.00
2018-12-25T01:37:22.189Z,5.36
2018-12-25T01:39:53.719Z,5.02
2018-12-25T01:42:23.160Z,5.19
2018-12-25T01:45:00.256Z,5.57
2018-12-25T01:47:29.362Z,5.55
2018-12-25T01:50:00.749Z,5.58
2018-12-25T01:52:35.546Z,5.17
2018-12-25T01:55:05.021Z,5.19
2018-12-25T01:57:34.159Z,5.40
2018-12-25T02:00:04.692Z,4.94
2018-12-25T02:02:36.284Z,5.23
2018-12-25T02:05:05.428Z,5.20
2018-12-25T02:07:35.934Z,5.37
2018-12-25T02:10:08.470Z,5.32
2018-12-25T02:12:37.904Z,5.23
2018-12-25T02:15:12.966Z,5.41
2018-12-25T02:17:42.128Z,5.90
2018-12-25T02:20:13.907Z,5.80
2018-12-25T02:22:43.023Z,6.05
2018-12-25T02:25:12.129Z,6.07
2018-12-25T02:27:41.349Z,6.02
2018-12-25T02:30:13.978Z,5.87
2018-12-25T02:32:43.064Z,6.23
2018-12-25T02:35:12.176Z,5.96
2018-12-25T02:37:45.503Z,5.36
2018-12-25T02:40:12.187Z,5.07
2018-12-25T02:42:41.295Z,4.69
2018-12-25T02:45:12.369Z,4.66
2018-12-25T02:47:41.583Z,4.51
2018-12-25T02:50:14.839Z,4.72
2018-12-25T02:52:43.934Z,4.41
2018-12-25T02:55:13.815Z,4.74
2018-12-25T02:57:42.991Z,4.79
2018-12-25T03:00:35.429Z,4.59
2018-12-25T03:03:07.450Z,5.22
2018-12-25T03:05:39.570Z,4.67
2018-12-25T03:08:15.600Z,4.37
2018-12-25T03:10:44.701Z,4.37
2018-12-25T03:13:14.014Z,3.93
2018-12-25T03:15:43.460Z,4.56
2018-12-25T03:18:12.596Z,4.75
2018-12-25T03:20:45.040Z,4.77
2018-12-25T03:23:14.311Z,4.55
2018-12-25T03:25:43.641Z,4.96
2018-12-25T03:28:15.773Z,5.00
2018-12-25T03:30:44.894Z,5.31
2018-12-25T03:33:15.538Z,5.11
2018-12-25T03:35:44.650Z,5.36
2018-12-25T03:38:13.856Z,5.15
2018-12-25T03:40:43.907Z,4.79
2018-12-25T03:43:13.554Z,4.72
2018-12-25T03:45:42.816Z,5.08
2018-12-25T03:48:12.247Z,5.63
2018-12-25T03:50:41.398Z,5.65
2018-12-25T03:53:10.495Z,5.77
2018-12-25T03:55:42.252Z,5.59
2018-12-25T03:58:11.327Z,5.42
2018-12-25T04:00:40.405Z,5.32
2018-12-25T04:03:09.554Z,5.68
2018-12-25T04:05:39.198Z,5.18
2018-12-25T04:08:11.117Z,4.96
2018-12-25T04:10:47.339Z,4.74
2018-12-25T04:13:16.481Z,4.99
2018-12-25T04:15:47.002Z,5.23
2018-12-25T04:18:20.029Z,5.34
2018-12-25T04:20:50.660Z,5.71
2018-12-25T04:23:19.806Z,5.63
2018-12-25T04:25:49.243Z,5.20
2018-12-25T04:28:18.862Z,5.41
2018-12-25T04:30:51.215Z,5.54
2018-12-25T04:33:22.005Z,5.69
2018-12-25T04:35:51.122Z,5.59
2018-12-25T04:38:21.900Z,5.54
2018-12-25T04:40:51.511Z,5.36
2018-12-25T04:43:28.200Z,5.52
2018-12-25T04:45:59.383Z,5.54
2018-12-25T04:48:29.613Z,5.35
2018-12-25T04:50:58.706Z,5.47
2018-12-25T04:53:28.906Z,5.18
2018-12-25T04:55:59.778Z,5.27
2018-12-25T04:58:29.300Z,4.68
2018-12-25T05:01:01.549Z,4.95
2018-12-25T05:05:59.021Z,5.52
2018-12-25T05:08:29.233Z,5.90
2018-12-25T05:10:58.348Z,5.88
2018-12-25T05:13:28.334Z,5.37
2018-12-25T05:16:03.446Z,4.96
2018-12-25T05:18:32.808Z,4.55
2018-12-25T05:21:05.003Z,4.85
2018-12-25T05:23:37.124Z,4.88
2018-12-25T05:26:07.631Z,4.83
2018-12-25T05:28:38.349Z,4.67
2018-12-25T05:31:07.459Z,4.11
2018-12-25T05:33:39.445Z,4.33
2018-12-25T05:36:08.553Z,4.17
2018-12-25T05:38:37.764Z,4.65
2018-12-25T05:41:10.138Z,4.46
2018-12-25T05:43:42.639Z,3.73
2018-12-25T05:46:11.770Z,4.49
2018-12-25T05:48:42.614Z,4.56
2018-12-25T05:51:16.403Z,4.31
2018-12-25T05:53:48.724Z,3.80
2018-12-25T05:56:23.608Z,2.67
2018-12-25T05:58:55.091Z,2.78
2018-12-25T06:01:24.177Z,2.41
2018-12-25T06:03:53.279Z,2.83
2018-12-25T06:06:22.451Z,2.56
2018-12-25T06:08:53.804Z,2.63
2018-12-25T06:11:29.401Z,2.86
2018-12-25T06:13:58.507Z,2.49
2018-12-25T06:16:32.250Z,2.03
2018-12-25T06:19:07.087Z,1.96
2018-12-25T06:21:37.916Z,1.85
2018-12-25T06:24:08.623Z,1.86
2018-12-25T06:26:40.198Z,1.77
2018-12-25T06:29:12.712Z,1.43
2018-12-25T06:31:49.251Z,1.87
2018-12-25T06:34:18.360Z,1.79
2018-12-25T06:36:49.985Z,1.58
2018-12-25T06:39:19.296Z,1.98
2018-12-25T06:41:48.417Z,1.70
2018-12-25T06:44:18.538Z,1.88
2018-12-25T06:46:47.652Z,1.84
2018-12-25T06:49:16.727Z,2.15
2018-12-25T06:51:45.841Z,1.93
2018-12-25T06:54:17.462Z,2.06
2018-12-25T06:56:51.939Z,1.69
2018-12-25T06:59:23.541Z,1.61
2018-12-25T07:01:52.673Z,2.21
2018-12-25T07:04:22.935Z,2.25
2018-12-25T07:06:52.044Z,2.07
2018-12-25T07:09:21.151Z,1.87
2018-12-25T07:11:53.298Z,2.23
2018-12-25T07:14:27.985Z,2.29
2018-12-25T07:16:58.763Z,2.12
2018-12-25T07:19:29.555Z,2.34
2018-12-25T07:21:58.720Z,0.24
2018-12-25T07:24:31.075Z,2.71
2018-12-25T07:27:03.032Z,3.19
2018-12-25T07:29:32.249Z,3.67
2018-12-25T07:32:01.369Z,3.69
2018-12-25T07:34:30.466Z,3.75
2018-12-25T07:37:01.295Z,3.75
2018-12-25T07:39:36.805Z,3.73
2018-12-25T07:42:10.487Z,4.20
2018-12-25T07:44:42.646Z,3.67
2018-12-25T07:47:11.807Z,3.62
2018-12-25T07:49:40.988Z,3.48
2018-12-25T07:52:12.107Z,3.79
2018-12-25T07:54:41.315Z,4.59
2018-12-25T07:57:10.428Z,2.35
2018-12-25T07:59:39.547Z,4.64
2018-12-25T08:02:08.689Z,4.92
2018-12-25T08:04:37.889Z,5.18
2018-12-25T08:07:10.077Z,4.91
2018-12-25T08:09:39.299Z,5.31
2018-12-25T08:12:08.484Z,4.93
2018-12-25T08:14:37.578Z,4.50
2018-12-25T08:17:07.710Z,4.43
2018-12-25T08:19:36.849Z,4.17
2018-12-25T08:22:10.306Z,3.87
2018-12-25T08:24:39.548Z,3.90
2018-12-25T08:27:09.072Z,4.01
2018-12-25T08:29:44.169Z,4.19
2018-12-25T08:32:14.099Z,3.57
2018-12-25T08:34:44.309Z,4.28
2018-12-25T08:37:13.694Z,4.20
2018-12-25T08:39:51.050Z,3.83
2018-12-25T08:42:20.153Z,3.65
2018-12-25T08:44:50.978Z,4.19
2018-12-25T08:47:21.038Z,4.38
2018-12-25T08:49:53.510Z,4.40
2018-12-25T08:52:26.050Z,3.79
2018-12-25T08:54:57.866Z,3.79
2018-12-25T08:57:29.589Z,3.99
2018-12-25T08:59:59.145Z,3.46
2018-12-25T09:02:29.522Z,3.38
2018-12-25T09:04:58.651Z,3.87
2018-12-25T09:07:27.799Z,3.03
2018-12-25T09:09:57.552Z,3.54
2018-12-25T09:12:26.739Z,2.73
2018-12-25T09:14:55.854Z,2.10
2018-12-25T09:17:24.967Z,2.45
2018-12-25T09:19:54.088Z,2.47
2018-12-25T09:22:24.372Z,2.24
2018-12-25T09:24:59.211Z,2.43
2018-12-25T09:27:28.368Z,2.02
2018-12-25T09:29:59.781Z,1.88
2018-12-25T09:32:29.250Z,2.37
2018-12-25T09:34:58.415Z,2.65
2018-12-25T09:37:27.533Z,2.92
2018-12-25T09:39:56.791Z,2.42
2018-12-25T09:42:25.988Z,3.09
2018-12-25T09:44:56.836Z,3.46
2018-12-25T09:47:26.228Z,3.10
2018-12-25T09:49:57.794Z,2.54
2018-12-25T09:52:26.886Z,1.51
2018-12-25T09:54:56.018Z,1.65
2018-12-25T09:57:26.373Z,2.17
2018-12-25T09:59:55.479Z,1.96
2018-12-25T10:02:25.438Z,1.84
2018-12-25T10:04:56.575Z,2.64
2018-12-25T10:07:31.049Z,2.75
2018-12-25T10:10:00.207Z,3.17
2018-12-25T10:12:29.317Z,2.56
2018-12-25T10:14:58.427Z,2.57
2018-12-25T10:17:28.855Z,3.50
2018-12-25T10:19:57.952Z,3.04
2018-12-25T10:22:30.950Z,3.06
2018-12-25T10:25:00.163Z,2.93
2018-12-25T10:27:38.073Z,3.10
2018-12-25T10:30:08.131Z,2.77
2018-12-25T10:32:37.231Z,2.50
2018-12-25T10:35:11.141Z,3.06
2018-12-25T10:37:41.730Z,3.19
2018-12-25T10:40:13.676Z,3.57
2018-12-25T10:42:48.622Z,3.90
2018-12-25T10:45:19.431Z,3.80
2018-12-25T10:47:56.068Z,3.49
2018-12-25T10:50:25.248Z,3.23
2018-12-25T10:52:57.778Z,3.58
2018-12-25T10:55:32.402Z,3.64
2018-12-25T10:58:04.602Z,3.87
2018-12-25T11:00:50.436Z,3.49
2018-12-25T11:03:19.579Z,3.58
2018-12-25T11:05:49.986Z,3.83
2018-12-25T11:08:19.126Z,3.56
2018-12-25T11:10:50.096Z,3.39
2018-12-25T11:13:19.206Z,3.06
2018-12-25T11:15:50.031Z,2.94
2018-12-25T11:18:19.178Z,2.57
2018-12-25T11:20:48.417Z,2.89
2018-12-25T11:23:20.382Z,2.78
2018-12-25T11:25:52.819Z,2.35
2018-12-25T11:28:25.052Z,2.59
2018-12-25T11:30:54.171Z,2.61
2018-12-25T11:33:23.301Z,2.87
2018-12-25T11:35:54.500Z,2.79
2018-12-25T11:38:23.335Z,2.94
2018-12-25T11:40:52.491Z,3.41
2018-12-25T11:43:21.595Z,2.66
2018-12-25T11:45:50.748Z,2.20
2018-12-25T11:48:20.992Z,2.60
2018-12-25T11:51:02.074Z,2.52
2018-12-25T11:53:37.169Z,2.48
2018-12-25T11:56:06.326Z,2.41
2018-12-25T11:58:39.350Z,0.13
2018-12-25T12:01:08.396Z,2.06
2018-12-25T12:03:40.062Z,2.27
2018-12-25T12:06:09.263Z,2.65
2018-12-25T12:08:39.525Z,2.56
2018-12-25T12:11:11.225Z,2.96
2018-12-25T12:13:40.341Z,3.52
2018-12-25T12:16:09.515Z,2.87
2018-12-25T12:18:38.616Z,2.83
2018-12-25T12:21:07.706Z,2.72
2018-12-25T12:23:39.450Z,2.54
2018-12-25T12:26:09.911Z,2.69
2018-12-25T12:29:02.286Z,3.17
2018-12-25T12:31:31.437Z,3.30
2018-12-25T12:34:03.748Z,3.79
2018-12-25T12:36:32.887Z,3.87
2018-12-25T12:39:03.148Z,3.56
2018-12-25T12:41:32.225Z,4.12
2018-12-25T12:44:02.546Z,4.01
2018-12-25T12:46:33.488Z,4.24
2018-12-25T12:49:02.587Z,5.03
2018-12-25T12:51:31.745Z,4.97
2018-12-25T12:54:05.248Z,4.54
2018-12-25T12:56:34.327Z,4.02
2018-12-25T12:59:05.666Z,3.23
2018-12-25T13:01:35.846Z,3.79
2018-12-25T13:04:04.957Z,3.99
2018-12-25T13:06:37.203Z,4.26
2018-12-25T13:09:08.154Z,3.53
2018-12-25T13:11:41.420Z,3.96
2018-12-25T13:14:10.759Z,4.76
2018-12-25T13:16:39.878Z,4.05
2018-12-25T13:19:09.051Z,4.43
2018-12-25T13:21:40.293Z,4.05
2018-12-25T13:24:14.983Z,4.59
2018-12-25T13:26:44.123Z,4.89
2018-12-25T13:29:14.898Z,5.22
2018-12-25T13:31:43.951Z,4.47
2018-12-25T13:34:18.064Z,4.51
2018-12-25T13:36:47.476Z,4.57
2018-12-25T13:39:17.343Z,4.38
2018-12-25T13:41:46.472Z,3.81
2018-12-25T13:44:15.998Z,3.83
2018-12-25T13:46:51.594Z,3.26
2018-12-25T13:49:18.103Z,3.40
2018-12-25T13:51:48.946Z,3.48
2018-12-25T13:54:23.155Z,3.71
2018-12-25T13:56:52.270Z,3.99
2018-12-25T13:59:23.916Z,3.96
2018-12-25T14:01:53.010Z,4.47
2018-12-25T14:04:22.210Z,4.68
2018-12-25T14:06:51.345Z,4.38
2018-12-25T14:09:21.773Z,3.61
2018-12-25T14:11:51.158Z,4.28
2018-12-25T14:14:21.700Z,4.20
2018-12-25T14:16:53.349Z,3.85
2018-12-25T14:19:26.623Z,3.98
2018-12-25T14:22:02.413Z,3.70
2018-12-25T14:24:31.589Z,3.50
2018-12-25T14:27:00.827Z,3.67
2018-12-25T14:29:31.159Z,3.63
2018-12-25T14:32:04.821Z,4.17
2018-12-25T14:34:42.784Z,4.45
2018-12-25T14:37:13.519Z,4.90
2018-12-25T14:39:42.731Z,4.95
2018-12-25T14:42:11.955Z,4.60
2018-12-25T14:44:41.048Z,4.32
2018-12-25T14:47:12.141Z,3.95
2018-12-25T14:49:42.371Z,3.49
2018-12-25T14:52:11.648Z,3.92
2018-12-25T14:54:45.292Z,3.53
2018-12-25T14:57:15.706Z,3.68
2018-12-25T14:59:44.843Z,4.11
2018-12-25T15:02:15.782Z,4.14
2018-12-25T15:04:46.028Z,4.07
2018-12-25T15:07:17.559Z,3.45
2018-12-25T15:09:46.707Z,3.12
2018-12-25T15:12:15.811Z,3.07
2018-12-25T15:14:46.647Z,2.92
2018-12-25T15:17:19.596Z,2.53
2018-12-25T15:19:48.717Z,2.70
2018-12-25T15:22:18.051Z,3.52
2018-12-25T15:24:47.284Z,3.45
2018-12-25T15:27:21.730Z,3.98
2018-12-25T15:29:50.937Z,3.99
2018-12-25T15:32:24.212Z,3.79
2018-12-25T15:34:55.071Z,3.37
2018-12-25T15:37:25.226Z,3.81
2018-12-25T15:39:54.689Z,4.50
2018-12-25T15:42:23.792Z,3.85
2018-12-25T15:44:53.071Z,3.30
2018-12-25T15:47:24.522Z,3.45
2018-12-25T15:49:56.958Z,3.69
2018-12-25T15:52:30.280Z,3.44
2018-12-25T15:55:01.831Z,3.63
2018-12-25T15:57:30.978Z,2.85
2018-12-25T16:00:01.352Z,3.00
2018-12-25T16:02:30.454Z,3.19
2018-12-25T16:05:02.124Z,2.84
2018-12-25T16:07:31.542Z,3.18
2018-12-25T16:10:04.226Z,3.31
2018-12-25T16:12:33.312Z,3.17
2018-12-25T16:15:03.749Z,3.50
2018-12-25T16:17:32.828Z,3.93
2018-12-25T16:20:06.314Z,3.31
2018-12-25T16:22:39.554Z,3.07
2018-12-25T16:25:10.301Z,3.22
2018-12-25T16:27:43.584Z,2.61
2018-12-25T16:30:12.724Z,2.53
2018-12-25T16:32:44.254Z,2.91
2018-12-25T16:35:18.720Z,3.04
2018-12-25T16:37:48.228Z,2.58
2018-12-25T16:40:21.825Z,2.67
2018-12-25T16:42:51.335Z,2.51
2018-12-25T16:45:24.834Z,2.61
2018-12-25T16:47:54.440Z,3.02
2018-12-25T16:50:24.260Z,2.69
2018-12-25T16:52:53.490Z,2.89
2018-12-25T16:55:24.396Z,2.82
2018-12-25T16:57:57.207Z,2.39
2018-12-25T17:00:29.080Z,2.29
2018-12-25T17:02:58.974Z,2.14
2018-12-25T17:05:29.926Z,2.41
2018-12-25T17:07:59.034Z,2.97
2018-12-25T17:10:31.059Z,3.44
2018-12-25T17:13:20.767Z,3.59
2018-12-25T17:15:51.305Z,3.54
2018-12-25T17:18:22.880Z,3.08
2018-12-25T17:20:52.300Z,2.48
2018-12-25T17:23:21.440Z,2.58
2018-12-25T17:25:53.062Z,2.54
2018-12-25T17:28:27.790Z,3.20
2018-12-25T17:30:53.152Z,3.15
2018-12-25T17:33:22.391Z,3.39
2018-12-25T17:35:52.020Z,3.55
2018-12-25T17:38:22.346Z,2.92
2018-12-25T17:40:51.917Z,2.47
2018-12-25T17:43:24.760Z,2.39
2018-12-25T17:45:53.794Z,2.45
2018-12-25T17:48:26.022Z,2.82
2018-12-25T17:50:56.585Z,2.55
2018-12-25T17:53:25.834Z,2.87
2018-12-25T17:55:55.274Z,1.94
2018-12-25T17:58:27.646Z,4.01
2018-12-25T18:00:56.838Z,3.70
2018-12-25T18:03:28.692Z,3.58
2018-12-25T18:06:01.556Z,3.57
2018-12-25T18:08:31.271Z,3.26
2018-12-25T18:11:01.673Z,3.41
2018-12-25T18:13:33.556Z,2.67
2018-12-25T18:16:02.649Z,2.55
2018-12-25T18:18:35.462Z,2.54
2018-12-25T18:21:04.615Z,2.48
2018-12-25T18:23:35.727Z,-0.26
2018-12-25T18:26:04.805Z,2.79
2018-12-25T18:28:33.938Z,3.04
2018-12-25T18:31:06.001Z,3.02
2018-12-25T18:33:35.149Z,2.73
2018-12-25T18:36:07.244Z,3.18
2018-12-25T18:38:39.341Z,2.51
2018-12-25T18:41:10.801Z,2.44
2018-12-25T18:43:40.982Z,2.59
2018-12-25T18:46:12.107Z,1.86
2018-12-25T18:48:42.650Z,1.95
2018-12-25T18:51:16.495Z,1.81
2018-12-25T18:53:47.238Z,2.36
2018-12-25T18:56:16.681Z,2.58
2018-12-25T18:58:46.266Z,3.00
2018-12-25T19:01:17.589Z,3.01
2018-12-25T19:03:46.673Z,2.51
2018-12-25T19:06:15.886Z,2.35
2018-12-25T19:08:46.850Z,2.33
2018-12-25T19:11:19.401Z,2.76
2018-12-25T19:13:54.718Z,2.09
2018-12-25T19:16:23.824Z,2.25
2018-12-25T19:18:53.206Z,2.33
2018-12-25T19:21:22.328Z,2.53
2018-12-25T19:23:59.981Z,2.44
2018-12-25T19:26:29.100Z,2.34
2018-12-25T19:29:00.104Z,2.25
2018-12-25T19:31:29.234Z,1.72
2018-12-25T19:33:58.379Z,1.96
2018-12-25T19:36:27.535Z,2.06
2018-12-25T19:38:59.330Z,2.58
2018-12-25T19:41:28.486Z,2.09
2018-12-25T19:43:57.690Z,2.47
2018-12-25T19:46:28.036Z,2.63
2018-12-25T19:48:57.588Z,2.42
2018-12-25T19:51:26.804Z,2.21
2018-12-25T19:53:57.303Z,2.65
2018-12-25T19:56:29.253Z,2.37
2018-12-25T19:59:00.133Z,2.45
2018-12-25T20:01:30.540Z,2.32
2018-12-25T20:04:35.046Z,2.96
2018-12-25T20:07:46.992Z,2.11
2018-12-25T20:11:03.183Z,2.12
2018-12-25T20:14:22.719Z,2.62
2018-12-25T20:17:31.527Z,3.04
2018-12-25T20:20:52.842Z,2.74
2018-12-25T20:24:19.237Z,2.27
2018-12-25T20:27:17.534Z,2.32
2018-12-25T20:30:29.516Z,2.25
2018-12-25T20:33:21.921Z,1.98
2018-12-25T20:36:52.701Z,1.77
2018-12-25T20:40:03.291Z,1.83
2018-12-25T20:43:05.971Z,2.11
2018-12-25T20:46:30.959Z,2.22
2018-12-25T20:49:52.529Z,1.88
2018-12-25T20:53:05.569Z,1.95
2018-12-25T20:56:18.264Z,2.30
2018-12-25T20:59:27.399Z,2.42
2018-12-25T21:02:46.741Z,2.32
2018-12-25T21:05:42.951Z,1.96
2018-12-25T21:08:48.077Z,2.22
2018-12-25T21:12:08.184Z,2.32
2018-12-25T21:15:08.112Z,2.35
2018-12-25T21:18:13.211Z,2.31
2018-12-25T21:21:18.375Z,2.16
2018-12-25T21:24:23.266Z,2.62
2018-12-25T21:27:28.331Z,2.48
2018-12-25T21:30:04.491Z,2.27
2018-12-25T21:32:39.312Z,1.83
2018-12-25T21:35:15.299Z,2.03
2018-12-25T21:37:46.619Z,2.28
2018-12-25T21:40:18.669Z,2.33
2018-12-25T21:42:49.766Z,2.22
2018-12-25T21:45:21.913Z,2.47
2018-12-25T21:47:51.038Z,2.30
2018-12-25T21:50:22.801Z,2.30
2018-12-25T21:52:56.746Z,2.94
2018-12-25T21:55:26.722Z,3.38
2018-12-25T21:57:55.931Z,3.58
2018-12-25T22:00:28.857Z,3.40
2018-12-25T22:02:58.072Z,3.86
2018-12-25T22:05:28.385Z,4.20
2018-12-25T22:07:57.523Z,3.28
2018-12-25T22:10:29.034Z,3.48
2018-12-25T22:12:58.438Z,3.21
2018-12-25T22:15:33.494Z,2.96
2018-12-25T22:18:09.518Z,2.58
2018-12-25T22:20:40.527Z,3.25
2018-12-25T22:23:10.696Z,3.34
2018-12-25T22:25:40.975Z,3.45
2018-12-25T22:28:10.605Z,3.00
2018-12-25T22:30:39.659Z,2.97
2018-12-25T22:33:10.099Z,3.54
2018-12-25T22:35:41.198Z,3.57
2018-12-25T22:38:14.027Z,2.82
2018-12-25T22:40:43.100Z,2.79
2018-12-25T22:43:16.112Z,3.50
2018-12-25T22:45:47.274Z,3.84
2018-12-25T22:48:19.734Z,3.83
2018-12-25T22:50:51.942Z,3.51
2018-12-25T22:53:22.502Z,3.43
2018-12-25T22:55:52.626Z,3.34
2018-12-25T22:58:21.994Z,3.52
2018-12-25T23:00:56.398Z,3.72
2018-12-25T23:03:27.509Z,4.14
2018-12-25T23:06:00.520Z,3.85
2018-12-25T23:08:30.532Z,3.86
2018-12-25T23:10:59.731Z,3.92
2018-12-25T23:16:21.904Z,4.16
2018-12-25T23:18:53.993Z,3.96
2018-12-25T23:21:23.105Z,3.76
2018-12-25T23:23:53.418Z,3.80
2018-12-25T23:26:23.294Z,2.57
2018-12-25T23:28:52.679Z,4.74
2018-12-25T23:31:21.997Z,4.53
2018-12-25T23:33:51.505Z,3.89
2018-12-25T23:36:21.934Z,4.49
2018-12-25T23:38:53.999Z,3.86
2018-12-25T23:41:23.322Z,3.30
2018-12-25T23:43:52.679Z,3.97
2018-12-25T23:46:22.422Z,3.60
2018-12-25T23:48:51.546Z,2.98
2018-12-25T23:51:22.080Z,2.63
2018-12-25T23:53:53.651Z,2.62
2018-12-25T23:56:22.757Z,3.27
2018-12-25T23:58:51.942Z,3.50
